Time;durP1;ratioP1;P1;durP2;ratioP2;P2;SDS_P1;SDS_P2;PMS_P1;PMS_P2;Temp;Humidity;BMP_temperature;BMP_pressure;BME280_temperature;BME280_humidity;BME280_pressure;Samples;Min_cycle;Max_cycle;Signal;HPM_P1;HPM_P2
2023/03/14 00:01:26;;;;;;;17.85;2.78;;;8.90;99.90;;;;;;7402224;19;19926;-73
2023/03/14 00:03:59;;;;;;;18.23;3.80;;;8.90;99.90;;;;;;7402667;19;19982;-73
2023/03/14 00:06:29;;;;;;;18.50;2.83;;;9.00;99.90;;;;;;7403435;19;19931;-73
2023/03/14 00:08:58;;;;;;;15.90;2.97;;;9.00;99.90;;;;;;7403684;19;19926;-74
2023/03/14 00:11:27;;;;;;;14.18;3.60;;;8.90;99.90;;;;;;7403600;19;19998;-73
2023/03/14 00:13:56;;;;;;;9.38;2.50;;;8.90;99.90;;;;;;7403694;19;19935;-73
2023/03/14 00:16:25;;;;;;;15.10;2.65;;;9.00;99.90;;;;;;7404758;19;19975;-74
2023/03/14 00:19:01;;;;;;;11.05;3.13;;;9.00;99.90;;;;;;7404190;19;19999;-74
2023/03/14 00:21:30;;;;;;;14.23;2.85;;;9.00;99.90;;;;;;7403661;19;19915;-73
2023/03/14 00:24:02;;;;;;;20.00;2.67;;;9.10;99.90;;;;;;7404449;19;20272;-73
2023/03/14 00:26:31;;;;;;;16.38;2.28;;;9.00;99.90;;;;;;7403219;19;20364;-73
2023/03/14 00:29:02;;;;;;;13.18;2.63;;;9.10;99.90;;;;;;7402252;19;19950;-73
2023/03/14 00:31:31;;;;;;;12.13;2.28;;;9.20;99.90;;;;;;7403146;19;19982;-73
2023/03/14 00:34:03;;;;;;;18.23;3.13;;;9.30;99.90;;;;;;7403876;19;19935;-72
2023/03/14 00:36:32;;;;;;;13.48;2.35;;;9.20;99.90;;;;;;7401802;19;20313;-73
2023/03/14 00:39:02;;;;;;;14.10;2.13;;;9.30;99.90;;;;;;7404819;19;19947;-72
2023/03/14 00:41:31;;;;;;;15.70;3.55;;;9.30;99.90;;;;;;7401513;19;19925;-73
2023/03/14 00:44:00;;;;;;;12.45;2.03;;;9.40;99.90;;;;;;7405037;19;19939;-73
2023/03/14 00:46:29;;;;;;;14.13;2.72;;;9.40;99.90;;;;;;7400918;19;19926;-75
2023/03/14 00:48:58;;;;;;;11.73;1.85;;;9.50;99.90;;;;;;7400977;19;19922;-75
2023/03/14 00:51:31;;;;;;;14.43;2.55;;;9.60;99.90;;;;;;7402350;19;19915;-72
2023/03/14 00:54:02;;;;;;;13.27;3.08;;;9.60;99.90;;;;;;7403382;19;19918;-72
2023/03/14 00:56:31;;;;;;;12.32;3.20;;;9.70;99.90;;;;;;7400709;19;19940;-73
2023/03/14 00:59:00;;;;;;;17.35;2.58;;;9.80;99.90;;;;;;7399635;19;19942;-72
2023/03/14 01:01:29;;;;;;;16.50;2.58;;;9.80;99.90;;;;;;7404246;19;19919;-73
2023/03/14 01:03:58;;;;;;;8.00;2.00;;;9.70;99.90;;;;;;7403644;19;19942;-73
2023/03/14 01:06:31;;;;;;;15.77;3.30;;;9.70;99.90;;;;;;7402830;19;19919;-73
2023/03/14 01:09:01;;;;;;;14.80;2.28;;;9.80;99.90;;;;;;7401073;19;19923;-72
2023/03/14 01:11:32;;;;;;;11.23;1.90;;;9.90;99.90;;;;;;7403100;19;19915;-73
2023/03/14 01:14:02;;;;;;;13.52;2.60;;;9.80;99.90;;;;;;7408717;19;19926;-73
2023/03/14 01:16:34;;;;;;;15.48;3.00;;;9.70;99.90;;;;;;7406999;19;20101;-72
2023/03/14 01:19:03;;;;;;;9.10;2.08;;;9.80;99.90;;;;;;7406663;19;19951;-73
2023/03/14 01:21:41;;;;;;;12.43;2.50;;;9.70;99.90;;;;;;7406859;19;19922;-73
2023/03/14 01:24:13;;;;;;;7.97;2.38;;;9.70;99.90;;;;;;7409594;19;19997;-73
2023/03/14 01:26:42;;;;;;;9.10;2.25;;;9.90;99.90;;;;;;7406394;19;20329;-72
2023/03/14 01:29:11;;;;;;;9.68;1.95;;;9.70;99.90;;;;;;7409755;19;19983;-73
2023/03/14 01:31:40;;;;;;;10.00;2.03;;;9.70;99.90;;;;;;7406334;19;20498;-73
2023/03/14 01:34:10;;;;;;;8.60;2.25;;;9.60;99.90;;;;;;7408017;19;20339;-73
2023/03/14 01:36:43;;;;;;;5.88;2.13;;;9.70;99.90;;;;;;7404227;19;19956;-73
2023/03/14 01:39:12;;;;;;;8.13;2.50;;;9.70;99.90;;;;;;7405684;19;19919;-73
2023/03/14 01:41:50;;;;;;;6.97;2.47;;;9.60;99.90;;;;;;7407804;19;19930;-73
2023/03/14 01:44:19;;;;;;;6.50;2.00;;;9.70;99.90;;;;;;7408564;19;20499;-73
2023/03/14 01:46:48;;;;;;;5.47;2.10;;;9.70;99.90;;;;;;7408529;19;20297;-73
2023/03/14 01:49:27;;;;;;;9.35;2.35;;;9.70;99.90;;;;;;7405440;19;19929;-73
2023/03/14 01:52:02;;;;;;;7.28;2.60;;;9.50;99.90;;;;;;7406582;19;19919;-73
2023/03/14 01:54:50;;;;;;;8.30;2.67;;;9.60;99.90;;;;;;7405931;19;20495;-73
2023/03/14 01:57:23;;;;;;;11.25;2.58;;;9.60;99.90;;;;;;7408578;19;19922;-73
2023/03/14 01:59:59;;;;;;;9.05;2.95;;;9.50;99.90;;;;;;7405557;19;19959;-72
2023/03/14 02:02:30;;;;;;;7.47;2.92;;;9.60;99.90;;;;;;7406379;19;19923;-73
2023/03/14 02:05:01;;;;;;;9.00;2.72;;;9.60;99.90;;;;;;7405244;19;19982;-73
2023/03/14 02:07:51;;;;;;;13.05;3.28;;;9.40;99.90;;;;;;7407506;19;19926;-73
2023/03/14 02:10:23;;;;;;;5.57;2.10;;;9.60;99.90;;;;;;7406345;19;19919;-72
2023/03/14 02:12:55;;;;;;;10.20;1.98;;;9.60;99.90;;;;;;7408625;19;19947;-73
2023/03/14 02:15:25;;;;;;;11.60;2.45;;;9.60;99.90;;;;;;7404438;19;19914;-73
2023/03/14 02:17:55;;;;;;;13.43;3.17;;;9.60;99.90;;;;;;7404524;19;20565;-73
2023/03/14 02:20:33;;;;;;;13.45;2.40;;;9.80;99.90;;;;;;7405317;19;19974;-73
2023/03/14 02:23:05;;;;;;;11.32;2.58;;;9.60;99.90;;;;;;7404146;19;19927;-73
2023/03/14 02:25:43;;;;;;;10.93;1.88;;;9.60;99.90;;;;;;7409344;19;19978;-72
2023/03/14 02:28:18;;;;;;;13.07;2.85;;;9.70;99.90;;;;;;7409776;19;19925;-73
2023/03/14 02:30:47;;;;;;;11.77;2.25;;;9.70;99.90;;;;;;7404184;19;19919;-73
2023/03/14 02:33:19;;;;;;;8.13;1.75;;;9.70;99.90;;;;;;7407413;19;19978;-74
2023/03/14 02:35:51;;;;;;;15.00;2.00;;;9.60;99.90;;;;;;7402258;19;20272;-73
2023/03/14 02:38:25;;;;;;;8.98;2.15;;;9.80;99.90;;;;;;7404550;19;20362;-73
2023/03/14 02:40:54;;;;;;;13.45;2.70;;;9.70;99.90;;;;;;7408560;19;19926;-73
2023/03/14 02:43:25;;;;;;;7.95;1.67;;;9.80;99.90;;;;;;7403724;19;19914;-73
2023/03/14 02:45:58;;;;;;;10.02;1.90;;;9.70;99.90;;;;;;7404275;19;19934;-73
2023/03/14 02:48:30;;;;;;;6.15;1.73;;;9.60;99.90;;;;;;7405792;19;20324;-73
2023/03/14 02:51:00;;;;;;;;;;;9.60;99.90;;;;;;7405334;19;19933;-73
2023/03/14 02:53:33;;;;;;;5.35;1.25;;;9.60;99.90;;;;;;7403265;19;19929;-72
2023/03/14 02:56:02;;;;;;;5.47;1.30;;;9.60;99.90;;;;;;7405204;19;19923;-73
2023/03/14 02:58:34;;;;;;;7.43;1.50;;;9.50;99.90;;;;;;7405995;19;20313;-73
2023/03/14 03:01:03;;;;;;;6.97;2.45;;;9.60;99.90;;;;;;7405343;19;20309;-73
2023/03/14 03:03:32;;;;;;;12.18;1.95;;;9.60;99.90;;;;;;7403711;19;19930;-72
2023/03/14 03:06:01;;;;;;;6.45;1.52;;;9.60;99.90;;;;;;7404945;19;19922;-73
2023/03/14 03:08:31;;;;;;;5.55;1.27;;;9.50;99.90;;;;;;7407797;19;20242;-73
2023/03/14 03:11:01;;;;;;;5.63;1.48;;;9.50;99.90;;;;;;7402577;19;19982;-73
2023/03/14 03:13:30;;;;;;;6.43;1.65;;;9.50;99.90;;;;;;7406160;19;19922;-73
2023/03/14 03:16:01;;;;;;;9.45;2.40;;;9.50;99.90;;;;;;7404826;19;19933;-73
2023/03/14 03:18:30;;;;;;;6.20;2.00;;;9.50;99.90;;;;;;7403132;19;19910;-73
2023/03/14 03:21:03;;;;;;;5.32;1.13;;;9.40;99.90;;;;;;7403934;19;19927;-73
2023/03/14 03:23:32;;;;;;;9.77;1.65;;;9.50;99.90;;;;;;7403025;19;19918;-73
2023/03/14 03:26:02;;;;;;;8.88;2.53;;;9.40;99.90;;;;;;7403554;19;19918;-72
2023/03/14 03:28:31;;;;;;;11.55;2.83;;;9.40;99.90;;;;;;7402733;19;20564;-73
2023/03/14 03:31:09;;;;;;;9.40;2.45;;;9.40;99.90;;;;;;7403228;19;19925;-74
2023/03/14 03:33:39;;;;;;;10.57;2.15;;;9.30;99.90;;;;;;7402809;19;19929;-73
2023/03/14 03:36:09;;;;;;;7.05;2.42;;;9.40;99.90;;;;;;7404364;19;19922;-73
2023/03/14 03:38:38;;;;;;;7.68;2.10;;;9.30;99.90;;;;;;7406039;19;20352;-73
2023/03/14 03:41:09;;;;;;;10.88;2.20;;;9.30;99.90;;;;;;7403060;19;19938;-73
2023/03/14 03:43:38;;;;;;;11.27;2.58;;;9.20;99.90;;;;;;7405593;19;19988;-73
2023/03/14 03:46:11;;;;;;;7.50;2.55;;;9.10;99.90;;;;;;7402808;19;19922;-73
2023/03/14 03:48:46;;;;;;;5.28;1.80;;;9.10;99.90;;;;;;7402776;19;19926;-73
2023/03/14 03:51:16;;;;;;;7.47;1.90;;;9.20;99.90;;;;;;7402524;19;19918;-73
2023/03/14 03:53:45;;;;;;;5.63;1.75;;;9.20;99.90;;;;;;7401207;19;19998;-73
2023/03/14 03:56:15;;;;;;;6.22;1.85;;;9.20;99.90;;;;;;7404865;19;19932;-73
2023/03/14 03:58:44;;;;;;;4.95;1.50;;;9.10;99.90;;;;;;7405081;19;20237;-73
2023/03/14 04:01:16;;;;;;;9.23;2.17;;;9.10;99.90;;;;;;7402741;19;20348;-73
2023/03/14 04:03:45;;;;;;;5.90;1.95;;;9.20;99.90;;;;;;7404076;19;20316;-73
2023/03/14 04:06:15;;;;;;;13.50;2.42;;;9.10;99.90;;;;;;7403353;19;19998;-73
2023/03/14 04:08:44;;;;;;;7.10;1.75;;;9.10;99.90;;;;;;7401700;19;19923;-73
2023/03/14 04:11:13;;;;;;;9.25;1.75;;;9.00;99.90;;;;;;7400732;19;19926;-73
2023/03/14 04:13:42;;;;;;;6.90;2.30;;;8.90;99.90;;;;;;7404938;19;19919;-72
2023/03/14 04:16:18;;;;;;;6.00;1.88;;;9.00;99.90;;;;;;7401089;19;19939;-72
2023/03/14 04:18:47;;;;;;;5.18;1.73;;;8.90;99.90;;;;;;7401481;19;19922;-73
2023/03/14 04:21:17;;;;;;;7.53;1.80;;;8.80;99.90;;;;;;7404556;19;19923;-73
2023/03/14 04:23:46;;;;;;;6.15;1.67;;;8.90;99.90;;;;;;7401183;19;19935;-72
2023/03/14 04:26:15;;;;;;;6.50;1.73;;;8.70;99.90;;;;;;7402583;19;19982;-73
2023/03/14 04:28:44;;;;;;;6.63;2.03;;;8.80;99.90;;;;;;7401834;19;20067;-73
2023/03/14 04:31:18;;;;;;;6.78;2.30;;;8.80;99.90;;;;;;7401924;19;19919;-72
2023/03/14 04:33:48;;;;;;;6.03;2.08;;;8.70;99.90;;;;;;7401288;19;19925;-72
2023/03/14 04:36:17;;;;;;;8.95;2.63;;;8.70;99.90;;;;;;7399749;19;19919;-73
2023/03/14 04:38:46;;;;;;;9.77;2.35;;;8.80;99.90;;;;;;7400986;19;19937;-73
2023/03/14 04:41:15;;;;;;;4.22;2.05;;;8.90;99.90;;;;;;7401748;19;20304;-73
2023/03/14 04:43:44;;;;;;;6.65;3.30;;;8.70;99.90;;;;;;7401018;19;20469;-72
2023/03/14 04:46:18;;;;;;;11.02;2.28;;;8.80;99.90;;;;;;7400653;19;19934;-72
2023/03/14 04:48:47;;;;;;;9.27;2.60;;;8.80;99.90;;;;;;7400392;19;19940;-72
2023/03/14 04:51:16;;;;;;;9.43;2.55;;;8.70;99.90;;;;;;7400682;19;20325;-72
2023/03/14 04:53:46;;;;;;;9.02;3.35;;;8.70;99.90;;;;;;7397974;19;19919;-73
2023/03/14 04:56:15;;;;;;;11.30;2.83;;;8.50;99.90;;;;;;7400526;19;19927;-72
2023/03/14 04:58:44;;;;;;;6.55;2.53;;;8.50;99.90;;;;;;7400009;19;19917;-72
2023/03/14 05:01:13;;;;;;;8.32;2.53;;;8.50;99.90;;;;;;7400385;19;19922;-72
2023/03/14 05:03:45;;;;;;;5.53;2.08;;;8.50;99.90;;;;;;7404074;19;19933;-71
2023/03/14 05:06:14;;;;;;;;;;;8.40;99.90;;;;;;7403695;19;20328;-72
2023/03/14 05:08:43;;;;;;;4.78;1.92;;;8.40;99.90;;;;;;7399818;19;19924;-72
2023/03/14 05:11:14;;;;;;;8.85;2.30;;;8.30;99.90;;;;;;7398525;19;20315;-72
2023/03/14 05:13:43;;;;;;;4.97;1.98;;;8.30;99.90;;;;;;7399534;19;19939;-72
2023/03/14 05:16:14;;;;;;;7.72;2.33;;;8.30;99.90;;;;;;7397714;19;19942;-72
2023/03/14 05:18:45;;;;;;;5.53;1.75;;;8.30;99.90;;;;;;7400293;19;19923;-72
2023/03/14 05:21:14;;;;;;;6.35;1.95;;;8.30;99.90;;;;;;7399480;19;19922;-72
2023/03/14 05:23:43;;;;;;;6.05;1.58;;;8.40;99.90;;;;;;7399310;19;19914;-73
2023/03/14 05:26:12;;;;;;;7.88;1.88;;;8.30;99.90;;;;;;7401045;19;19922;-73
2023/03/14 05:28:41;;;;;;;4.97;1.90;;;8.40;99.90;;;;;;7402308;19;20363;-73
2023/03/14 05:31:13;;;;;;;6.40;1.92;;;8.40;99.90;;;;;;7399620;19;19923;-73
2023/03/14 05:33:45;;;;;;;5.80;2.22;;;8.40;99.90;;;;;;7399128;19;19972;-73
2023/03/14 05:36:14;;;;;;;4.38;1.90;;;8.30;99.90;;;;;;7396971;19;19914;-73
2023/03/14 05:38:43;;;;;;;8.32;2.03;;;8.30;99.90;;;;;;7399181;19;20337;-73
2023/03/14 05:41:12;;;;;;;4.32;1.67;;;8.30;99.90;;;;;;7400755;19;20371;-73
2023/03/14 05:43:41;;;;;;;4.80;1.85;;;8.30;99.90;;;;;;7402539;19;19943;-73
2023/03/14 05:46:10;;;;;;;8.07;2.20;;;8.60;99.90;;;;;;7401323;19;19974;-72
2023/03/14 05:48:39;;;;;;;6.45;2.60;;;8.30;99.90;;;;;;7398830;19;19922;-73
2023/03/14 05:51:31;;;;;;;6.90;2.22;;;8.20;99.90;;;;;;7398151;19;19919;-73
2023/03/14 05:54:20;;;;;;;4.68;1.98;;;8.10;99.90;;;;;;7397801;19;19922;-73
2023/03/14 05:57:09;;;;;;;9.00;2.90;;;8.10;99.90;;;;;;7399065;19;19919;-73
2023/03/14 05:59:58;;;;;;;7.28;2.90;;;8.10;99.90;;;;;;7405575;19;20580;-73
2023/03/14 06:02:47;;;;;;;7.65;2.55;;;8.10;99.90;;;;;;7404685;19;19929;-73
2023/03/14 06:05:36;;;;;;;3.58;2.55;;;8.00;99.90;;;;;;7406386;19;19919;-72
2023/03/14 06:08:08;;;;;;;8.35;2.70;;;8.00;99.90;;;;;;7408526;19;19994;-73
2023/03/14 06:10:38;;;;;;;8.43;3.17;;;8.20;99.90;;;;;;7407803;19;19926;-73
2023/03/14 06:13:17;;;;;;;5.05;2.83;;;8.00;99.90;;;;;;7407584;19;19915;-73
2023/03/14 06:15:46;;;;;;;8.50;2.45;;;8.00;99.90;;;;;;7403986;19;19954;-73
2023/03/14 06:18:16;;;;;;;7.00;2.15;;;8.00;99.90;;;;;;7408362;19;19931;-72
2023/03/14 06:20:45;;;;;;;10.43;2.70;;;8.10;99.90;;;;;;7407230;19;19954;-72
2023/03/14 06:23:16;;;;;;;5.10;2.05;;;8.00;99.90;;;;;;7407341;19;19922;-72
2023/03/14 06:25:45;;;;;;;7.40;2.78;;;8.10;99.90;;;;;;7405305;19;19954;-73
2023/03/14 06:28:14;;;;;;;5.40;2.38;;;8.10;99.90;;;;;;7404692;19;19926;-73
2023/03/14 06:30:43;;;;;;;7.43;2.75;;;8.10;99.90;;;;;;7405446;19;19947;-73
2023/03/14 06:33:12;;;;;;;6.68;2.35;;;8.50;99.90;;;;;;7406642;19;19922;-73
2023/03/14 06:35:41;;;;;;;7.03;2.08;;;8.00;99.90;;;;;;7402909;19;20257;-73
2023/03/14 06:38:10;;;;;;;7.30;1.95;;;8.10;99.90;;;;;;7404151;19;20276;-72
2023/03/14 06:40:42;;;;;;;8.73;2.50;;;8.10;99.90;;;;;;7406634;19;19978;-72
2023/03/14 06:43:11;;;;;;;6.05;2.10;;;8.10;99.90;;;;;;7404621;19;19918;-73
2023/03/14 06:45:40;;;;;;;8.32;2.10;;;8.80;99.90;;;;;;7405180;19;19986;-73
2023/03/14 06:48:10;;;;;;;5.88;2.00;;;8.10;99.90;;;;;;7405583;19;20384;-73
2023/03/14 06:50:39;;;;;;;6.25;2.03;;;8.10;99.90;;;;;;7407971;19;19922;-74
2023/03/14 06:53:08;;;;;;;3.75;1.80;;;8.10;99.90;;;;;;7401649;19;19911;-73
2023/03/14 06:55:38;;;;;;;9.02;2.67;;;9.20;99.90;;;;;;7407551;19;19943;-73
2023/03/14 06:58:10;;;;;;;6.40;1.95;;;8.20;99.90;;;;;;7403709;19;19922;-73
2023/03/14 07:00:39;;;;;;;5.40;1.98;;;8.20;99.90;;;;;;7404378;19;19926;-74
2023/03/14 07:03:08;;;;;;;4.78;1.42;;;9.00;99.90;;;;;;7402997;19;19974;-73
2023/03/14 07:05:42;;;;;;;2.60;1.30;;;8.20;99.90;;;;;;7405280;19;19927;-74
2023/03/14 07:08:11;;;;;;;2.63;1.45;;;8.20;99.90;;;;;;7403659;19;19914;-73
2023/03/14 07:10:40;;;;;;;1.42;0.90;;;8.20;99.90;;;;;;7402347;19;19946;-74
2023/03/14 07:13:12;;;;;;;2.13;0.90;;;8.20;99.90;;;;;;7401545;19;19931;-75
2023/03/14 07:15:41;;;;;;;4.10;1.33;;;7.90;99.90;;;;;;7403618;19;19919;-74
2023/03/14 07:18:10;;;;;;;4.10;1.70;;;7.70;99.90;;;;;;7402484;19;19915;-75
2023/03/14 07:20:39;;;;;;;2.28;1.08;;;7.50;99.90;;;;;;7403353;19;19926;-75
2023/03/14 07:23:08;;;;;;;5.30;1.90;;;7.30;99.90;;;;;;7405386;19;19918;-74
2023/03/14 07:25:37;;;;;;;10.25;2.40;;;7.00;99.90;;;;;;7405579;19;19947;-73
2023/03/14 07:28:06;;;;;;;9.88;2.47;;;6.90;99.90;;;;;;7403146;19;19923;-74
2023/03/14 07:30:38;;;;;;;11.13;3.03;;;6.90;99.90;;;;;;7402581;19;19911;-73
2023/03/14 07:33:08;;;;;;;10.45;2.72;;;6.80;99.90;;;;;;7404050;19;20415;-73
2023/03/14 07:35:37;;;;;;;6.55;1.58;;;6.60;99.90;;;;;;7402118;19;19923;-74
2023/03/14 07:38:06;;;;;;;4.97;1.10;;;6.20;99.90;;;;;;7404451;19;19918;-75
2023/03/14 07:40:35;;;;;;;7.60;1.02;;;6.00;99.90;;;;;;7406486;19;19922;-74
2023/03/14 07:43:15;;;;;;;4.75;1.33;;;6.50;99.90;;;;;;7402776;19;19922;-73
2023/03/14 07:45:48;;;;;;;10.65;1.55;;;5.80;99.90;;;;;;7401052;19;19915;-74
2023/03/14 07:48:17;;;;;;;9.07;1.10;;;5.60;99.90;;;;;;7404493;19;19956;-73
2023/03/14 07:50:46;;;;;;;9.63;1.00;;;5.50;99.90;;;;;;7403876;19;20011;-73
2023/03/14 07:53:15;;;;;;;5.90;0.85;;;5.40;99.90;;;;;;7399728;19;19945;-74
2023/03/14 07:55:46;;;;;;;6.15;0.90;;;4.70;99.90;;;;;;7405429;19;19919;-73
2023/03/14 07:58:15;;;;;;;3.08;0.40;;;5.40;99.90;;;;;;7402061;19;19933;-74
2023/03/14 08:00:46;;;;;;;2.95;0.32;;;5.10;99.90;;;;;;7405870;19;19943;-73
2023/03/14 08:03:16;;;;;;;2.72;0.40;;;5.00;99.90;;;;;;7401956;19;19922;-73
2023/03/14 08:05:45;;;;;;;0.60;0.40;;;4.30;99.90;;;;;;7402125;19;19915;-73
2023/03/14 08:08:14;;;;;;;2.00;0.10;;;;;;;;;;7401414;19;19924;-72
2023/03/14 08:10:44;;;;;;;2.13;0.40;;;4.90;99.90;;;;;;7401637;19;19937;-73
2023/03/14 08:13:13;;;;;;;2.90;0.20;;;4.50;99.90;;;;;;7399449;19;19966;-72
2023/03/14 08:15:42;;;;;;;0.55;0.40;;;5.20;99.90;;;;;;7405142;19;20265;-72
2023/03/14 08:18:14;;;;;;;1.45;0.47;;;4.10;99.90;;;;;;7400709;19;20007;-73
2023/03/14 08:20:43;;;;;;;2.30;0.60;;;5.20;99.90;;;;;;7397733;19;19935;-73
2023/03/14 08:23:12;;;;;;;2.65;0.40;;;;;;;;;;7401010;19;20396;-73
2023/03/14 08:25:43;;;;;;;2.95;0.50;;;5.20;99.90;;;;;;7401691;19;19927;-73
2023/03/14 08:28:16;;;;;;;3.83;0.60;;;3.80;99.90;;;;;;7401111;19;20372;-74
2023/03/14 08:30:45;;;;;;;1.58;0.32;;;4.10;99.90;;;;;;7401574;19;19919;-74
2023/03/14 08:33:16;;;;;;;0.90;0.20;;;4.50;99.90;;;;;;7402901;19;19927;-73
2023/03/14 08:35:45;;;;;;;3.45;0.40;;;5.50;99.90;;;;;;7399918;19;19922;-73
2023/03/14 08:38:14;;;;;;;0.70;0.20;;;5.50;99.90;;;;;;7400571;19;19922;-72
2023/03/14 08:40:43;;;;;;;3.22;0.40;;;5.70;99.90;;;;;;7403178;19;19927;-72
2023/03/14 08:43:12;;;;;;;0.73;0.25;;;5.90;99.90;;;;;;7404656;19;19935;-72
2023/03/14 08:45:41;;;;;;;2.63;0.38;;;5.10;99.90;;;;;;7400403;19;19922;-72
2023/03/14 08:48:10;;;;;;;2.17;0.20;;;5.30;99.90;;;;;;7400136;19;19931;-75
2023/03/14 08:50:42;;;;;;;2.22;0.47;;;5.80;99.90;;;;;;7401194;19;19919;-71
2023/03/14 08:53:11;;;;;;;1.85;0.40;;;5.20;99.90;;;;;;7399032;19;20374;-72
2023/03/14 08:55:40;;;;;;;1.95;1.05;;;5.90;99.90;;;;;;7403135;19;19933;-74
2023/03/14 08:58:10;;;;;;;3.95;0.47;;;5.20;99.90;;;;;;7399025;19;20018;-73
2023/03/14 09:00:39;;;;;;;3.15;0.35;;;5.10;99.90;;;;;;7404821;19;19970;-73
2023/03/14 09:03:08;;;;;;;3.80;0.40;;;5.30;99.90;;;;;;7403241;19;19923;-73
2023/03/14 09:05:37;;;;;;;3.78;0.38;;;5.80;99.90;;;;;;7403382;19;20306;-73
2023/03/14 09:08:09;;;;;;;5.38;0.40;;;5.90;99.90;;;;;;7403525;19;19926;-73
2023/03/14 09:10:38;;;;;;;3.65;0.47;;;6.70;99.90;;;;;;7397114;19;19956;-73
2023/03/14 09:13:07;;;;;;;2.30;0.35;;;6.30;99.90;;;;;;7388340;19;19922;-74
2023/03/14 09:15:36;;;;;;;5.55;0.43;;;5.90;99.90;;;;;;7393523;19;19914;-73
2023/03/14 09:18:05;;;;;;;4.10;0.40;;;5.70;99.90;;;;;;7380887;19;19925;-74
2023/03/14 09:20:34;;;;;;;5.55;1.13;;;5.80;99.90;;;;;;7395089;19;19958;-75
2023/03/14 09:23:03;;;;;;;3.38;0.60;;;5.70;99.90;;;;;;7397562;19;20344;-75
2023/03/14 09:25:35;;;;;;;4.70;1.00;;;5.70;99.90;;;;;;7398957;19;19970;-76
2023/03/14 09:28:04;;;;;;;6.55;0.82;;;6.50;99.90;;;;;;7400269;19;20345;-76
2023/03/14 09:30:33;;;;;;;3.65;0.60;;;4.60;99.90;;;;;;7400220;19;20370;-75
2023/03/14 09:33:02;;;;;;;3.95;0.40;;;5.60;99.90;;;;;;7400950;19;19922;-75
2023/03/14 09:35:37;;;;;;;4.32;1.02;;;5.50;99.90;;;;;;7405765;19;19926;-73
2023/03/14 09:38:08;;;;;;;6.30;1.38;;;6.20;99.90;;;;;;7404758;19;19922;-74
2023/03/14 09:40:40;;;;;;;3.88;0.95;;;6.80;99.90;;;;;;7407332;19;19930;-75
2023/03/14 09:43:14;;;;;;;10.27;2.80;;;7.10;99.90;;;;;;7405621;19;19942;-76
2023/03/14 09:45:48;;;;;;;4.65;1.33;;;5.90;99.90;;;;;;7404715;19;19927;-74
2023/03/14 09:48:21;;;;;;;6.80;0.90;;;6.30;99.90;;;;;;7404878;19;19922;-76
2023/03/14 09:50:54;;;;;;;9.35;1.60;;;6.00;99.90;;;;;;7403873;19;19996;-72
2023/03/14 09:53:28;;;;;;;6.35;1.13;;;6.10;99.90;;;;;;7403324;19;20344;-77
2023/03/14 09:56:01;;;;;;;13.18;1.52;;;6.20;99.90;;;;;;7405965;19;19938;-77
2023/03/14 09:58:32;;;;;;;13.57;2.22;;;6.20;99.90;;;;;;7404531;19;19954;-72
2023/03/14 10:01:04;;;;;;;5.25;1.35;;;6.10;99.90;;;;;;7406328;19;19922;-74
2023/03/14 10:03:37;;;;;;;17.17;3.17;;;6.10;99.90;;;;;;7404400;19;19947;-74
2023/03/14 10:06:14;;;;;;;8.13;1.80;;;6.10;99.90;;;;;;7403780;19;19926;-74
2023/03/14 10:08:44;;;;;;;9.02;2.22;;;6.20;99.90;;;;;;7407303;19;19981;-74
2023/03/14 10:11:19;;;;;;;6.25;2.13;;;6.20;99.90;;;;;;7404634;19;19935;-75
2023/03/14 10:14:04;;;;;;;9.82;1.73;;;6.20;99.90;;;;;;7403712;19;19935;-74
2023/03/14 10:16:35;;;;;;;11.77;2.20;;;6.30;99.90;;;;;;7405209;19;19926;-74
2023/03/14 10:19:24;;;;;;;9.80;1.58;;;6.50;99.90;;;;;;7401568;19;19925;-75
2023/03/14 10:21:56;;;;;;;14.45;2.72;;;6.50;99.90;;;;;;7405548;19;19923;-76
2023/03/14 10:24:31;;;;;;;6.55;1.05;;;5.90;99.90;;;;;;7404752;19;19925;-74
2023/03/14 10:27:06;;;;;;;10.60;2.17;;;6.30;99.90;;;;;;7405463;19;19957;-72
2023/03/14 10:29:36;;;;;;;11.63;1.80;;;6.40;99.90;;;;;;7405515;19;20333;-74
2023/03/14 10:32:07;;;;;;;14.55;2.45;;;6.10;99.90;;;;;;7404434;19;20333;-75
2023/03/14 10:34:39;;;;;;;14.18;1.83;;;6.10;99.90;;;;;;7401498;19;20005;-76
2023/03/14 10:37:11;;;;;;;8.77;1.60;;;6.50;99.90;;;;;;7404639;19;19946;-74
2023/03/14 10:39:48;;;;;;;14.57;2.10;;;6.20;99.90;;;;;;7406010;19;19926;-74
2023/03/14 10:42:29;;;;;;;11.00;1.90;;;6.20;99.90;;;;;;7405163;19;19974;-74
2023/03/14 10:45:01;;;;;;;14.95;2.47;;;7.60;99.90;;;;;;7399932;19;19946;-75
2023/03/14 10:47:30;;;;;;;15.20;1.50;;;6.30;99.90;;;;;;7401140;19;19918;-76
2023/03/14 10:50:25;;;;;;;7.22;1.58;;;6.20;99.90;;;;;;7403859;19;20344;-74
2023/03/14 10:52:55;;;;;;;12.07;1.27;;;6.10;99.90;;;;;;7404233;19;19927;-76
2023/03/14 10:55:27;;;;;;;9.05;1.50;;;6.10;99.90;;;;;;7403801;19;19918;-73
2023/03/14 10:58:00;;;;;;;8.20;1.77;;;6.10;99.90;;;;;;7403274;19;19944;-73
2023/03/14 11:00:33;;;;;;;15.88;1.50;;;6.30;99.90;;;;;;7402959;19;19919;-74
2023/03/14 11:03:10;;;;;;;8.07;1.42;;;6.20;99.90;;;;;;7402187;19;19935;-75
2023/03/14 11:05:56;;;;;;;9.20;1.35;;;6.20;99.90;;;;;;7405425;19;19943;-73
2023/03/14 11:08:30;;;;;;;8.77;1.38;;;6.30;99.90;;;;;;7403816;19;19918;-73
2023/03/14 11:11:13;;;;;;;7.22;1.15;;;6.50;99.90;;;;;;7401991;19;19928;-78
2023/03/14 11:13:54;;;;;;;4.30;0.95;;;6.60;99.90;;;;;;7402611;19;20638;-74
2023/03/14 11:16:29;;;;;;;3.28;0.73;;;6.50;99.90;;;;;;7404260;19;19925;-78
2023/03/14 11:19:13;;;;;;;2.95;0.80;;;7.10;99.90;;;;;;7402731;19;19943;-77
2023/03/14 11:21:49;;;;;;;4.75;1.67;;;6.30;99.90;;;;;;7403425;19;19915;-74
2023/03/14 11:24:35;;;;;;;7.30;2.03;;;6.50;99.90;;;;;;7403192;19;19929;-74
2023/03/14 11:27:16;;;;;;;6.22;1.08;;;6.50;99.90;;;;;;7403697;19;19926;-74
2023/03/14 11:29:55;;;;;;;8.48;1.10;;;6.40;99.90;;;;;;7401887;19;20616;-77
2023/03/14 11:32:34;;;;;;;6.55;1.17;;;6.60;99.90;;;;;;7402400;19;19942;-76
2023/03/14 11:35:08;;;;;;;3.58;0.60;;;6.20;99.90;;;;;;7403687;19;20566;-76
2023/03/14 11:37:48;;;;;;;5.95;1.05;;;6.20;99.90;;;;;;7403222;19;20011;-74
2023/03/14 11:40:22;;;;;;;6.10;1.15;;;6.30;99.90;;;;;;7401353;19;19935;-74
2023/03/14 11:43:01;;;;;;;6.50;0.60;;;6.40;99.90;;;;;;7402159;19;19919;-74
2023/03/14 11:45:38;;;;;;;2.90;1.20;;;6.50;99.90;;;;;;7402568;19;19926;-79
2023/03/14 11:48:19;;;;;;;7.15;1.20;;;6.20;99.90;;;;;;7401628;19;19922;-76
2023/03/14 11:50:52;;;;;;;3.17;0.68;;;6.50;99.90;;;;;;7404609;19;20389;-75
2023/03/14 11:53:47;;;;;;;5.90;0.75;;;6.60;99.90;;;;;;7402330;19;19923;-78
2023/03/14 11:56:22;;;;;;;5.13;0.90;;;6.90;99.90;;;;;;7401377;19;19946;-74
2023/03/14 11:59:00;;;;;;;6.25;0.93;;;6.70;99.90;;;;;;7403454;19;19976;-79
2023/03/14 12:01:57;;;;;;;4.30;0.90;;;6.60;99.90;;;;;;7400554;19;19956;-80
2023/03/14 12:04:40;;;;;;;4.78;1.00;;;6.30;99.90;;;;;;7402583;19;19923;-76
2023/03/14 12:07:20;;;;;;;3.45;0.65;;;6.40;99.90;;;;;;7401868;19;20006;-76
2023/03/14 12:09:50;;;;;;;4.13;0.93;;;6.20;99.90;;;;;;7403171;19;19918;-77
2023/03/14 12:12:29;;;;;;;2.42;0.73;;;6.30;99.90;;;;;;7401309;19;20278;-78
2023/03/14 12:15:01;;;;;;;3.67;0.73;;;6.20;99.90;;;;;;7400025;19;19922;-76
2023/03/14 12:17:43;;;;;;;3.47;0.60;;;6.20;99.90;;;;;;7403900;19;19933;-78
2023/03/14 12:20:21;;;;;;;4.82;1.02;;;6.30;99.90;;;;;;7401119;19;19922;-76
2023/03/14 12:22:53;;;;;;;2.70;1.00;;;6.80;99.90;;;;;;7401514;19;19946;-77
2023/03/14 12:25:24;;;;;;;1.85;0.93;;;7.10;99.90;;;;;;7402122;19;19926;-76
2023/03/14 12:28:20;;;;;;;3.78;0.50;;;6.90;99.90;;;;;;7403254;19;19926;-77
2023/03/14 12:30:49;;;;;;;2.25;0.80;;;7.00;99.90;;;;;;7402056;19;19950;-75
2023/03/14 12:33:35;;;;;;;2.78;1.02;;;7.10;99.90;;;;;;7398791;19;19918;-76
2023/03/14 12:36:49;;;;;;;3.95;0.77;;;6.90;99.90;;;;;;7401514;19;19946;-76
2023/03/14 12:39:28;;;;;;;2.40;0.70;;;7.00;99.90;;;;;;7391426;19;19918;-76
2023/03/14 12:42:06;;;;;;;4.70;0.75;;;6.70;99.90;;;;;;7398539;19;20362;-76
2023/03/14 12:44:51;;;;;;;6.15;1.00;;;6.60;99.90;;;;;;7400770;19;20279;-76
2023/03/14 12:47:50;;;;;;;6.88;0.82;;;7.00;99.90;;;;;;7398670;19;19930;-76
2023/03/14 12:50:29;;;;;;;10.90;1.45;;;6.20;99.90;;;;;;7395886;19;19937;-76
2023/03/14 12:53:43;;;;;;;6.00;1.33;;;6.60;99.90;;;;;;7397424;19;19932;-76
2023/03/14 12:56:28;;;;;;;5.35;0.90;;;6.40;99.90;;;;;;7400685;19;19974;-76
2023/03/14 12:59:08;;;;;;;8.10;1.45;;;6.30;99.90;;;;;;7398220;19;20376;-76
2023/03/14 13:01:38;;;;;;;3.03;0.90;;;6.20;99.90;;;;;;7401297;19;19914;-76
2023/03/14 13:04:13;;;;;;;7.60;1.27;;;6.80;99.90;;;;;;7398166;19;19918;-75
2023/03/14 13:06:56;;;;;;;7.35;2.00;;;6.00;99.90;;;;;;7402791;19;19944;-76
2023/03/14 13:09:53;;;;;;;4.95;1.00;;;6.00;99.90;;;;;;7404401;19;19925;-77
2023/03/14 13:12:32;;;;;;;6.38;0.98;;;5.20;99.90;;;;;;7406289;19;19918;-76
2023/03/14 13:15:03;;;;;;;6.65;1.00;;;6.00;99.90;;;;;;7393675;19;20315;-78
2023/03/14 13:17:35;;;;;;;6.22;1.20;;;6.20;99.90;;;;;;7407049;19;19926;-76
2023/03/14 13:20:07;;;;;;;3.80;0.40;;;6.20;99.90;;;;;;7404867;19;19922;-76
2023/03/14 13:22:39;;;;;;;4.07;0.70;;;6.30;99.90;;;;;;7405876;19;19915;-76
2023/03/14 13:25:12;;;;;;;2.83;0.93;;;6.60;99.90;;;;;;7398861;19;19927;-76